createdAt,value
2018-07-24T00:00:53.599Z,57.44
2018-07-24T00:03:22.834Z,58.88
2018-07-24T00:05:52.239Z,59.17
2018-07-24T00:08:21.403Z,59.21
2018-07-24T00:10:50.594Z,59.19
2018-07-24T00:13:19.832Z,60.15
2018-07-24T00:15:49.240Z,59.89
2018-07-24T00:18:18.396Z,59.62
2018-07-24T00:20:47.603Z,59.77
2018-07-24T00:23:16.788Z,60.21
2018-07-24T00:25:46.020Z,60.55
2018-07-24T00:28:15.280Z,60.68
2018-07-24T00:30:44.535Z,60.44
2018-07-24T00:33:13.808Z,60.52
2018-07-24T00:35:43.040Z,60.90
2018-07-24T00:38:12.476Z,60.64
2018-07-24T00:40:41.835Z,60.68
2018-07-24T00:43:11.119Z,60.54
2018-07-24T00:45:40.248Z,60.07
2018-07-24T00:48:09.423Z,60.58
2018-07-24T00:50:38.599Z,61.18
2018-07-24T00:53:08.007Z,61.47
2018-07-24T00:55:37.170Z,61.47
2018-07-24T00:58:06.559Z,61.84
2018-07-24T01:00:35.712Z,61.81
2018-07-24T01:03:04.908Z,61.00
2018-07-24T01:05:34.176Z,61.18
2018-07-24T01:08:03.391Z,62.22
2018-07-24T01:10:32.696Z,62.07
2018-07-24T01:13:01.908Z,62.49
2018-07-24T01:15:32.563Z,62.44
2018-07-24T01:18:01.840Z,62.18
2018-07-24T01:20:32.053Z,62.37
2018-07-24T01:23:02.355Z,62.40
2018-07-24T01:25:31.508Z,62.22
2018-07-24T01:28:00.740Z,62.53
2018-07-24T01:30:29.916Z,62.30
2018-07-24T01:32:59.080Z,62.20
2018-07-24T01:35:28.245Z,62.39
2018-07-24T01:37:57.452Z,62.42
2018-07-24T01:40:26.629Z,62.77
2018-07-24T01:42:55.772Z,61.50
2018-07-24T01:45:24.898Z,61.96
2018-07-24T01:47:54.694Z,61.49
2018-07-24T01:50:23.903Z,62.61
2018-07-24T01:52:53.060Z,62.38
2018-07-24T01:55:22.204Z,62.73
2018-07-24T01:57:51.406Z,63.27
2018-07-24T02:00:20.545Z,63.61
2018-07-24T02:02:49.690Z,63.57
2018-07-24T02:05:18.881Z,63.91
2018-07-24T02:07:48.117Z,63.86
2018-07-24T02:10:17.330Z,63.82
2018-07-24T02:12:46.517Z,64.01
2018-07-24T02:15:15.725Z,63.76
2018-07-24T02:17:45.920Z,63.85
2018-07-24T02:20:15.098Z,64.13
2018-07-24T02:22:44.301Z,64.17
2018-07-24T02:25:13.533Z,63.90
2018-07-24T02:27:42.669Z,64.01
2018-07-24T02:30:11.863Z,64.43
2018-07-24T02:32:41.060Z,65.22
2018-07-24T02:35:10.354Z,64.93
2018-07-24T02:37:39.588Z,64.12
2018-07-24T02:40:08.798Z,64.60
2018-07-24T02:42:37.980Z,64.53
2018-07-24T02:45:08.301Z,65.18
2018-07-24T02:47:37.528Z,65.05
2018-07-24T02:50:06.806Z,64.85
2018-07-24T02:52:36.020Z,64.59
2018-07-24T02:55:05.308Z,64.84
2018-07-24T02:57:34.496Z,65.13
2018-07-24T03:00:03.689Z,64.92
2018-07-24T03:02:32.879Z,65.53
2018-07-24T03:05:02.078Z,65.45
2018-07-24T03:07:31.269Z,65.91
2018-07-24T03:10:00.457Z,66.19
2018-07-24T03:12:29.624Z,66.20
2018-07-24T03:14:58.860Z,65.88
2018-07-24T03:17:28.099Z,65.87
2018-07-24T03:19:57.356Z,66.10
2018-07-24T03:22:26.597Z,65.72
2018-07-24T03:24:55.853Z,65.77
2018-07-24T03:27:25.087Z,65.97
2018-07-24T03:29:54.224Z,65.92
2018-07-24T03:32:23.521Z,65.88
2018-07-24T03:34:52.806Z,66.58
2018-07-24T03:37:21.984Z,66.38
2018-07-24T03:39:51.116Z,66.56
2018-07-24T03:42:20.273Z,65.99
2018-07-24T03:44:49.437Z,65.76
2018-07-24T03:47:18.625Z,66.08
2018-07-24T03:49:47.851Z,66.14
2018-07-24T03:52:17.088Z,66.44
2018-07-24T03:54:46.212Z,66.70
2018-07-24T03:57:15.433Z,66.58
2018-07-24T03:59:44.657Z,67.04
2018-07-24T04:02:13.982Z,66.98
2018-07-24T04:04:43.188Z,66.52
2018-07-24T04:07:12.473Z,66.72
2018-07-24T04:09:41.640Z,66.44
2018-07-24T04:12:10.821Z,66.80
2018-07-24T04:14:40.058Z,67.19
2018-07-24T04:17:09.296Z,67.37
2018-07-24T04:19:38.540Z,66.61
2018-07-24T04:22:07.801Z,66.24
2018-07-24T04:24:36.980Z,65.53
2018-07-24T04:27:06.520Z,65.83
2018-07-24T04:29:35.944Z,65.26
2018-07-24T04:32:05.129Z,65.29
2018-07-24T04:34:34.256Z,66.98
2018-07-24T04:37:03.464Z,65.79
2018-07-24T04:39:32.777Z,65.80
2018-07-24T04:42:01.989Z,66.27
2018-07-24T04:44:31.188Z,65.93
2018-07-24T04:47:00.459Z,64.83
2018-07-24T04:49:29.680Z,64.30
2018-07-24T04:51:58.865Z,64.07
2018-07-24T04:54:27.976Z,63.74
2018-07-24T04:56:57.316Z,64.67
2018-07-24T04:59:26.433Z,64.35
2018-07-24T05:01:55.608Z,62.99
2018-07-24T05:04:24.775Z,63.69
2018-07-24T05:06:53.964Z,63.64
2018-07-24T05:09:23.092Z,62.62
2018-07-24T05:11:52.268Z,61.83
2018-07-24T05:14:24.666Z,60.92
2018-07-24T05:16:56.585Z,60.63
2018-07-24T05:19:25.890Z,60.02
2018-07-24T05:21:55.120Z,59.68
2018-07-24T05:24:24.281Z,59.00
2018-07-24T05:26:53.520Z,59.66
2018-07-24T05:29:22.677Z,58.62
2018-07-24T05:31:51.912Z,57.09
2018-07-24T05:34:21.088Z,57.51
2018-07-24T05:36:50.324Z,57.84
2018-07-24T05:39:19.580Z,56.95
2018-07-24T05:41:48.762Z,55.10
2018-07-24T05:44:17.973Z,56.33
2018-07-24T05:46:47.215Z,56.94
2018-07-24T05:49:16.458Z,56.88
2018-07-24T05:51:45.713Z,57.04
2018-07-24T05:54:14.956Z,56.36
2018-07-24T05:56:44.151Z,55.51
2018-07-24T05:59:13.389Z,55.98
2018-07-24T06:01:42.689Z,55.60
2018-07-24T06:04:12.006Z,54.45
2018-07-24T06:06:41.533Z,52.47
2018-07-24T06:09:11.024Z,53.63
2018-07-24T06:11:40.250Z,53.37
2018-07-24T06:14:09.713Z,51.96
2018-07-24T06:16:38.972Z,53.01
2018-07-24T06:19:08.169Z,52.86
2018-07-24T06:21:37.354Z,52.15
2018-07-24T06:24:06.578Z,52.59
2018-07-24T06:26:35.696Z,51.80
2018-07-24T06:29:04.925Z,51.67
2018-07-24T06:31:34.068Z,52.06
2018-07-24T06:34:03.243Z,52.39
2018-07-24T06:36:32.463Z,52.35
2018-07-24T06:39:01.828Z,51.70
2018-07-24T06:41:31.174Z,51.98
2018-07-24T06:44:00.498Z,51.09
2018-07-24T06:46:29.639Z,51.08
2018-07-24T06:48:58.838Z,52.20
2018-07-24T06:51:28.031Z,50.93
2018-07-24T06:53:57.238Z,51.16
2018-07-24T06:56:26.383Z,51.22
2018-07-24T06:58:55.768Z,50.85
2018-07-24T07:01:24.919Z,50.73
2018-07-24T07:03:54.159Z,50.60
2018-07-24T07:06:23.558Z,50.70
2018-07-24T07:08:56.748Z,50.37
2018-07-24T07:11:26.229Z,49.52
2018-07-24T07:13:55.471Z,49.77
2018-07-24T07:16:24.673Z,50.55
2018-07-24T07:18:53.876Z,49.97
2018-07-24T07:21:23.109Z,48.56
2018-07-24T07:23:52.327Z,48.77
2018-07-24T07:26:21.538Z,48.21
2018-07-24T07:28:50.962Z,48.09
2018-07-24T07:31:20.101Z,47.88
2018-07-24T07:33:49.309Z,48.66
2018-07-24T07:36:18.553Z,48.05
2018-07-24T07:38:47.756Z,47.35
2018-07-24T07:41:16.898Z,47.95
2018-07-24T07:43:46.076Z,46.95
2018-07-24T07:46:15.276Z,46.02
2018-07-24T07:48:44.586Z,46.52
2018-07-24T07:51:13.745Z,46.87
2018-07-24T07:53:42.989Z,45.45
2018-07-24T07:56:12.177Z,44.20
2018-07-24T07:58:41.485Z,44.10
2018-07-24T08:01:10.714Z,44.64
2018-07-24T08:03:39.905Z,43.44
2018-07-24T08:06:09.110Z,43.13
2018-07-24T08:08:38.260Z,43.09
2018-07-24T08:11:07.725Z,42.69
2018-07-24T08:13:37.055Z,40.58
2018-07-24T08:16:06.484Z,40.20
2018-07-24T08:18:35.686Z,39.04
2018-07-24T08:21:05.006Z,39.81
2018-07-24T08:23:34.181Z,40.54
2018-07-24T08:26:03.511Z,39.96
2018-07-24T08:28:32.823Z,38.78
2018-07-24T08:31:02.136Z,38.36
2018-07-24T08:33:31.556Z,39.43
2018-07-24T08:36:00.845Z,36.45
2018-07-24T08:38:30.234Z,36.80
2018-07-24T08:40:59.718Z,37.11
2018-07-24T08:43:29.140Z,36.32
2018-07-24T08:45:58.577Z,33.96
2018-07-24T08:48:28.044Z,34.24
2018-07-24T08:50:57.446Z,33.83
2018-07-24T08:53:27.122Z,35.23
2018-07-24T08:55:56.122Z,35.13
2018-07-24T08:58:25.536Z,32.79
2018-07-24T09:00:54.762Z,32.24
2018-07-24T09:03:23.995Z,32.11
2018-07-24T09:05:53.233Z,32.12
2018-07-24T09:08:22.455Z,33.66
2018-07-24T09:10:51.686Z,32.88
2018-07-24T09:13:20.966Z,32.44
2018-07-24T09:15:50.448Z,29.86
2018-07-24T09:18:19.732Z,30.52
2018-07-24T09:20:49.148Z,31.20
2018-07-24T09:23:18.473Z,31.22
2018-07-24T09:25:47.723Z,30.45
2018-07-24T09:28:16.984Z,31.37
2018-07-24T09:30:46.321Z,29.17
2018-07-24T09:33:15.846Z,30.34
2018-07-24T09:35:45.250Z,29.01
2018-07-24T09:38:14.425Z,27.90
2018-07-24T09:40:43.831Z,29.59
2018-07-24T09:43:12.992Z,28.60
2018-07-24T09:45:42.345Z,30.53
2018-07-24T09:48:11.734Z,28.51
2018-07-24T09:50:41.214Z,29.08
2018-07-24T09:53:10.410Z,28.70
2018-07-24T09:55:39.592Z,27.35
2018-07-24T09:58:08.891Z,29.31
2018-07-24T10:00:43.692Z,27.39
2018-07-24T10:03:14.119Z,29.99
2018-07-24T10:05:43.394Z,27.22
2018-07-24T10:08:12.708Z,27.12
2018-07-24T10:10:41.995Z,26.38
2018-07-24T10:13:11.296Z,27.74
2018-07-24T10:15:40.548Z,25.99
2018-07-24T10:18:09.693Z,26.12
2018-07-24T10:20:38.944Z,28.21
2018-07-24T10:23:08.397Z,28.78
2018-07-24T10:25:37.863Z,27.89
2018-07-24T10:28:07.170Z,26.91
2018-07-24T10:30:36.498Z,28.44
2018-07-24T10:33:05.897Z,26.76
2018-07-24T10:35:36.059Z,26.97
2018-07-24T10:38:05.316Z,26.92
2018-07-24T10:40:34.560Z,26.67
2018-07-24T10:43:03.801Z,25.73
2018-07-24T10:45:33.038Z,26.93
2018-07-24T10:48:02.308Z,25.94
2018-07-24T10:50:31.686Z,25.42
2018-07-24T10:53:00.861Z,25.56
2018-07-24T10:55:30.030Z,26.67
2018-07-24T10:57:59.244Z,26.90
2018-07-24T11:00:28.547Z,28.25
2018-07-24T11:02:57.773Z,27.36
2018-07-24T11:05:27.098Z,25.14
2018-07-24T11:07:56.384Z,25.70
2018-07-24T11:10:25.626Z,26.88
2018-07-24T11:12:54.837Z,25.10
2018-07-24T11:15:24.133Z,25.86
2018-07-24T11:17:53.392Z,26.35
2018-07-24T11:20:22.643Z,25.77
2018-07-24T11:22:52.023Z,26.65
2018-07-24T11:25:21.292Z,25.88
2018-07-24T11:27:50.582Z,24.90
2018-07-24T11:30:19.943Z,25.55
2018-07-24T11:32:49.231Z,27.12
2018-07-24T11:35:18.437Z,26.56
2018-07-24T11:37:47.801Z,25.44
2018-07-24T11:40:16.962Z,26.16
2018-07-24T11:42:46.391Z,24.59
2018-07-24T11:45:15.571Z,24.53
2018-07-24T11:47:44.743Z,24.22
2018-07-24T11:50:14.056Z,24.63
2018-07-24T11:52:43.473Z,24.43
2018-07-24T11:55:12.610Z,23.63
2018-07-24T11:57:42.040Z,24.04
2018-07-24T12:00:11.194Z,24.28
2018-07-24T12:02:40.497Z,23.26
2018-07-24T12:05:09.881Z,21.78
2018-07-24T12:07:39.168Z,22.75
2018-07-24T12:10:08.574Z,22.55
2018-07-24T12:12:37.980Z,24.21
2018-07-24T12:15:07.728Z,25.35
2018-07-24T12:17:37.007Z,25.80
2018-07-24T12:20:06.330Z,25.55
2018-07-24T12:22:35.910Z,24.51
2018-07-24T12:25:05.403Z,24.16
2018-07-24T12:27:34.797Z,23.59
2018-07-24T12:30:05.437Z,24.25
2018-07-24T12:32:34.951Z,24.34
2018-07-24T12:35:04.306Z,22.83
2018-07-24T12:37:33.747Z,23.86
2018-07-24T12:40:03.461Z,23.81
2018-07-24T12:42:32.853Z,22.84
2018-07-24T12:45:02.142Z,23.28
2018-07-24T12:47:31.449Z,23.60
2018-07-24T12:50:01.027Z,23.95
2018-07-24T12:52:31.508Z,23.26
2018-07-24T12:55:00.895Z,24.33
2018-07-24T12:57:30.193Z,24.00
2018-07-24T12:59:59.482Z,24.80
2018-07-24T13:02:28.808Z,24.22
2018-07-24T13:04:58.698Z,23.15
2018-07-24T13:07:27.993Z,24.93
2018-07-24T13:09:57.435Z,23.27
2018-07-24T13:12:26.805Z,22.68
2018-07-24T13:14:56.096Z,24.43
2018-07-24T13:17:25.826Z,23.59
2018-07-24T13:19:55.064Z,24.01
2018-07-24T13:22:24.316Z,23.04
2018-07-24T13:24:53.544Z,23.56
2018-07-24T13:27:22.939Z,24.20
2018-07-24T13:29:52.124Z,22.81
2018-07-24T13:32:21.510Z,23.25
2018-07-24T13:34:50.811Z,23.66
2018-07-24T13:37:20.477Z,23.80
2018-07-24T13:39:49.723Z,24.00
2018-07-24T13:42:18.959Z,23.89
2018-07-24T13:44:48.125Z,24.03
2018-07-24T13:47:17.338Z,24.63
2018-07-24T13:49:47.535Z,23.70
2018-07-24T13:52:16.740Z,23.29
2018-07-24T13:54:46.009Z,23.68
2018-07-24T13:57:15.272Z,24.28
2018-07-24T13:59:44.529Z,24.22
2018-07-24T14:02:13.931Z,24.74
2018-07-24T14:04:43.336Z,24.92
2018-07-24T14:07:12.555Z,24.06
2018-07-24T14:09:41.816Z,24.68
2018-07-24T14:12:11.104Z,24.07
2018-07-24T14:14:41.428Z,24.86
2018-07-24T14:17:10.609Z,24.78
2018-07-24T14:19:39.829Z,23.50
2018-07-24T14:22:08.994Z,23.44
2018-07-24T14:24:38.330Z,22.58
2018-07-24T14:27:07.582Z,24.63
2018-07-24T14:29:36.789Z,23.76
2018-07-24T14:32:05.913Z,24.42
2018-07-24T14:34:35.105Z,23.33
2018-07-24T14:37:04.286Z,23.50
2018-07-24T14:39:33.522Z,24.84
2018-07-24T14:42:02.767Z,24.94
2018-07-24T14:44:32.124Z,24.58
2018-07-24T14:47:01.253Z,23.85
2018-07-24T14:49:30.424Z,23.67
2018-07-24T14:51:59.668Z,24.60
2018-07-24T14:54:28.985Z,25.70
2018-07-24T14:56:58.297Z,24.53
2018-07-24T14:59:27.922Z,23.29
2018-07-24T15:01:57.084Z,23.85
2018-07-24T15:04:26.293Z,24.12
2018-07-24T15:06:55.469Z,24.26
2018-07-24T15:09:26.591Z,24.03
2018-07-24T15:11:55.807Z,23.62
2018-07-24T15:14:25.054Z,23.01
2018-07-24T15:16:54.434Z,23.31
2018-07-24T15:19:23.644Z,23.93
2018-07-24T15:21:52.769Z,24.75
2018-07-24T15:24:22.206Z,24.92
2018-07-24T15:26:51.390Z,23.69
2018-07-24T15:29:20.730Z,22.80
2018-07-24T15:31:50.065Z,24.58
2018-07-24T15:34:19.351Z,23.47
2018-07-24T15:36:48.472Z,24.96
2018-07-24T15:39:17.821Z,24.58
2018-07-24T15:41:47.011Z,24.00
2018-07-24T15:44:16.212Z,23.51
2018-07-24T15:46:45.461Z,23.61
2018-07-24T15:49:14.677Z,24.35
2018-07-24T15:51:44.007Z,23.64
2018-07-24T15:54:13.244Z,23.88
2018-07-24T15:56:42.857Z,22.47
2018-07-24T15:59:12.139Z,23.79
2018-07-24T16:01:41.313Z,23.35
2018-07-24T16:04:10.517Z,23.99
2018-07-24T16:06:39.711Z,23.07
2018-07-24T16:09:11.787Z,23.22
2018-07-24T16:11:41.161Z,23.93
2018-07-24T16:14:10.708Z,24.62
2018-07-24T16:16:40.249Z,24.02
2018-07-24T16:19:09.577Z,24.04
2018-07-24T16:21:38.887Z,24.94
2018-07-24T16:24:08.188Z,24.58
2018-07-24T16:26:37.492Z,24.81
2018-07-24T16:29:06.936Z,24.63
2018-07-24T16:31:36.049Z,24.74
2018-07-24T16:34:05.303Z,25.49
2018-07-24T16:36:34.659Z,24.90
2018-07-24T16:39:04.328Z,23.55
2018-07-24T16:41:33.483Z,23.87
2018-07-24T16:44:02.672Z,22.80
2018-07-24T16:46:31.989Z,24.67
2018-07-24T16:49:01.341Z,25.56
2018-07-24T16:51:30.572Z,25.04
2018-07-24T16:53:59.935Z,24.23
2018-07-24T16:56:29.185Z,24.79
2018-07-24T16:58:58.347Z,24.70
2018-07-24T17:01:27.622Z,25.91
2018-07-24T17:03:56.905Z,24.85
2018-07-24T17:06:26.060Z,23.65
2018-07-24T17:08:55.186Z,25.24
2018-07-24T17:11:24.473Z,24.52
2018-07-24T17:13:53.806Z,23.94
2018-07-24T17:16:23.069Z,25.34
2018-07-24T17:18:52.242Z,25.65
2018-07-24T17:21:21.452Z,25.67
2018-07-24T17:23:50.613Z,24.87
2018-07-24T17:26:20.065Z,25.47
2018-07-24T17:28:49.213Z,25.67
2018-07-24T17:31:18.630Z,24.83
2018-07-24T17:33:47.790Z,26.45
2018-07-24T17:36:17.025Z,26.33
2018-07-24T17:38:46.289Z,26.96
2018-07-24T17:41:15.519Z,26.96
2018-07-24T17:43:44.709Z,26.92
2018-07-24T17:46:13.945Z,27.41
2018-07-24T17:48:43.152Z,27.09
2018-07-24T17:51:12.338Z,27.24
2018-07-24T17:53:41.596Z,26.90
2018-07-24T17:56:10.860Z,28.04
2018-07-24T17:58:39.988Z,28.41
2018-07-24T18:01:09.189Z,28.39
2018-07-24T18:03:38.386Z,28.26
2018-07-24T18:06:07.936Z,28.64
2018-07-24T18:08:37.666Z,28.32
2018-07-24T18:11:07.675Z,29.00
2018-07-24T18:13:37.017Z,29.41
2018-07-24T18:16:06.329Z,28.85
2018-07-24T18:18:35.684Z,29.30
2018-07-24T18:21:07.661Z,30.14
2018-07-24T18:23:36.986Z,30.47
2018-07-24T18:26:06.986Z,31.00
2018-07-24T18:28:36.239Z,31.47
2018-07-24T18:31:05.401Z,32.18
2018-07-24T18:33:34.561Z,34.72
2018-07-24T18:36:03.758Z,36.00
2018-07-24T18:38:32.950Z,37.12
2018-07-24T18:41:02.160Z,37.25
2018-07-24T18:43:31.360Z,38.71
2018-07-24T18:46:00.597Z,37.11
2018-07-24T18:48:29.842Z,38.83
2018-07-24T18:50:59.085Z,37.74
2018-07-24T18:53:28.260Z,38.06
2018-07-24T18:55:57.480Z,38.21
2018-07-24T18:58:26.906Z,38.92
2018-07-24T19:00:58.519Z,40.09
2018-07-24T19:03:27.770Z,40.69
2018-07-24T19:05:57.644Z,40.71
2018-07-24T19:08:27.566Z,40.77
2018-07-24T19:10:56.708Z,41.09
2018-07-24T19:13:26.114Z,41.39
2018-07-24T19:15:55.415Z,41.06
2018-07-24T19:18:24.817Z,42.34
2018-07-24T19:20:54.110Z,42.22
2018-07-24T19:23:24.078Z,42.15
2018-07-24T19:25:53.359Z,42.12
2018-07-24T19:28:22.781Z,42.93
2018-07-24T19:30:52.084Z,42.47
2018-07-24T19:33:21.428Z,42.90
2018-07-24T19:35:50.835Z,43.13
2018-07-24T19:38:20.176Z,44.60
2018-07-24T19:40:50.377Z,43.77
2018-07-24T19:43:19.569Z,43.98
2018-07-24T19:45:48.792Z,44.14
2018-07-24T19:48:17.966Z,43.92
2018-07-24T19:50:47.228Z,44.55
2018-07-24T19:53:16.424Z,44.51
2018-07-24T19:55:45.681Z,45.01
2018-07-24T19:58:14.924Z,44.78
2018-07-24T20:00:44.145Z,44.71
2018-07-24T20:03:14.095Z,45.30
2018-07-24T20:05:43.538Z,45.45
2018-07-24T20:08:12.861Z,45.64
2018-07-24T20:10:42.059Z,45.67
2018-07-24T20:13:11.348Z,45.32
2018-07-24T20:15:40.596Z,45.93
2018-07-24T20:18:09.956Z,46.73
2018-07-24T20:20:39.231Z,46.25
2018-07-24T20:23:08.476Z,45.47
2018-07-24T20:25:37.685Z,46.32
2018-07-24T20:28:07.301Z,44.16
2018-07-24T20:30:36.456Z,43.46
2018-07-24T20:33:05.760Z,45.81
2018-07-24T20:35:35.119Z,45.98
2018-07-24T20:38:04.301Z,44.84
2018-07-24T20:40:33.551Z,46.38
2018-07-24T20:43:02.843Z,46.42
2018-07-24T20:45:32.169Z,46.92
2018-07-24T20:48:01.393Z,47.33
2018-07-24T20:50:30.651Z,47.45
2018-07-24T20:52:59.841Z,47.83
2018-07-24T20:55:29.134Z,46.08
2018-07-24T20:57:58.264Z,47.51
2018-07-24T21:00:27.647Z,48.01
2018-07-24T21:02:56.836Z,47.49
2018-07-24T21:05:26.082Z,45.88
2018-07-24T21:07:55.237Z,44.86
2018-07-24T21:10:24.527Z,46.00
2018-07-24T21:12:53.796Z,47.66
2018-07-24T21:15:25.235Z,47.28
2018-07-24T21:17:54.393Z,48.25
2018-07-24T21:20:24.809Z,48.42
2018-07-24T21:22:54.045Z,47.56
2018-07-24T21:25:23.286Z,47.59
2018-07-24T21:27:52.708Z,48.10
2018-07-24T21:30:21.941Z,47.91
2018-07-24T21:32:51.330Z,48.43
2018-07-24T21:35:20.750Z,48.71
2018-07-24T21:37:50.249Z,48.61
2018-07-24T21:40:19.658Z,48.76
2018-07-24T21:42:48.948Z,49.63
2018-07-24T21:45:18.116Z,50.20
2018-07-24T21:47:47.225Z,48.63
2018-07-24T21:50:16.417Z,48.05
2018-07-24T21:52:45.552Z,48.89
2018-07-24T21:55:14.742Z,48.49
2018-07-24T21:57:43.932Z,48.63
2018-07-24T22:00:13.402Z,48.58
2018-07-24T22:02:42.751Z,49.36
2018-07-24T22:05:12.093Z,48.93
2018-07-24T22:07:41.218Z,48.18
2018-07-24T22:10:15.661Z,48.46
2018-07-24T22:12:44.864Z,49.40
2018-07-24T22:15:20.269Z,50.21
2018-07-24T22:17:49.814Z,49.91
2018-07-24T22:20:19.306Z,50.20
2018-07-24T22:22:48.626Z,50.44
2018-07-24T22:25:17.989Z,50.76
2018-07-24T22:27:47.116Z,51.18
2018-07-24T22:30:17.364Z,51.36
2018-07-24T22:32:46.550Z,52.11
2018-07-24T22:35:15.856Z,51.67
2018-07-24T22:37:45.037Z,52.20
2018-07-24T22:40:14.471Z,51.63
2018-07-24T22:42:43.700Z,51.98
2018-07-24T22:45:12.895Z,51.51
2018-07-24T22:47:42.122Z,51.88
2018-07-24T22:50:11.445Z,52.69
2018-07-24T22:52:40.730Z,52.51
2018-07-24T22:55:09.944Z,53.22
2018-07-24T22:57:39.088Z,53.35
2018-07-24T23:00:08.379Z,53.91
2018-07-24T23:02:37.633Z,53.48
2018-07-24T23:05:06.888Z,53.97
2018-07-24T23:07:36.122Z,53.70
2018-07-24T23:10:06.020Z,54.03
2018-07-24T23:12:35.163Z,54.19
2018-07-24T23:15:05.017Z,54.68
2018-07-24T23:17:34.345Z,54.61
2018-07-24T23:20:03.557Z,52.59
2018-07-24T23:22:32.749Z,53.47
2018-07-24T23:25:01.969Z,54.41
2018-07-24T23:27:31.245Z,53.93
2018-07-24T23:30:00.512Z,54.66
2018-07-24T23:32:29.760Z,54.66
2018-07-24T23:34:59.033Z,55.47
2018-07-24T23:37:28.317Z,55.00
2018-07-24T23:39:57.420Z,54.83
2018-07-24T23:42:26.601Z,54.93
2018-07-24T23:44:55.745Z,55.16
2018-07-24T23:47:24.990Z,56.07
2018-07-24T23:49:54.182Z,56.01
2018-07-24T23:52:23.342Z,55.99
2018-07-24T23:54:52.616Z,56.01
2018-07-24T23:57:21.768Z,55.82
2018-07-24T23:59:50.969Z,56.16
